createdAt,value
2019-02-18T00:01:54.128Z,13.47
2019-02-18T00:06:56.225Z,14.77
2019-02-18T00:11:58.107Z,14.70
2019-02-18T00:17:00.901Z,13.93
2019-02-18T00:22:04.107Z,14.40
2019-02-18T00:27:06.143Z,13.70
2019-02-18T00:32:08.059Z,14.07
2019-02-18T00:37:10.051Z,14.47
2019-02-18T00:42:11.983Z,13.83
2019-02-18T00:47:14.020Z,13.70
2019-02-18T00:52:15.903Z,13.50
2019-02-18T00:57:17.839Z,15.03
2019-02-18T01:02:19.851Z,15.17
2019-02-18T01:07:21.739Z,14.07
2019-02-18T01:12:23.743Z,15.40
2019-02-18T01:17:25.941Z,15.40
2019-02-18T01:22:28.036Z,14.37
2019-02-18T01:27:29.946Z,15.93
2019-02-18T01:32:31.980Z,15.57
2019-02-18T01:37:33.902Z,15.87
2019-02-18T01:42:35.804Z,16.03
2019-02-18T01:47:37.806Z,16.17
2019-02-18T01:52:39.788Z,16.37
2019-02-18T01:57:41.704Z,15.50
2019-02-18T02:02:43.882Z,15.30
2019-02-18T02:07:55.528Z,15.50
2019-02-18T02:12:49.624Z,16.13
2019-02-18T02:17:51.632Z,16.10
2019-02-18T02:22:54.567Z,15.17
2019-02-18T02:27:56.511Z,16.47
2019-02-18T02:32:58.421Z,15.17
2019-02-18T02:38:07.667Z,15.20
2019-02-18T02:43:04.316Z,15.70
2019-02-18T02:48:06.770Z,14.67
2019-02-18T02:53:11.931Z,14.93
2019-02-18T02:58:15.349Z,15.80
2019-02-18T03:03:17.564Z,14.43
2019-02-18T03:08:20.798Z,15.17
2019-02-18T03:13:22.966Z,14.60
2019-02-18T03:18:24.892Z,15.07
2019-02-18T03:23:26.776Z,15.10
2019-02-18T03:29:09.542Z,15.87
2019-02-18T03:34:15.816Z,14.77
2019-02-18T03:39:17.721Z,14.57
2019-02-18T03:44:19.636Z,15.23
2019-02-18T03:49:21.869Z,15.33
2019-02-18T03:54:23.775Z,14.97
2019-02-18T03:59:25.707Z,14.53
2019-02-18T04:04:27.752Z,14.80
2019-02-18T04:09:32.118Z,14.97
2019-02-18T04:14:34.124Z,13.93
2019-02-18T04:19:36.041Z,14.73
2019-02-18T04:24:37.938Z,15.87
2019-02-18T04:29:41.983Z,17.00
2019-02-18T04:34:43.909Z,17.73
2019-02-18T04:39:45.861Z,17.60
2019-02-18T04:44:48.904Z,17.63
2019-02-18T04:49:50.817Z,17.40
2019-02-18T04:54:52.814Z,16.37
2019-02-18T04:59:54.916Z,15.83
2019-02-18T05:04:57.211Z,16.73
2019-02-18T05:09:59.130Z,17.90
2019-02-18T05:15:01.383Z,16.43
2019-02-18T05:20:03.880Z,15.47
2019-02-18T05:25:06.799Z,14.63
2019-02-18T05:30:09.418Z,15.77
2019-02-18T05:35:11.435Z,15.53
2019-02-18T05:40:13.371Z,15.23
2019-02-18T05:45:15.365Z,15.83
2019-02-18T05:50:17.254Z,15.67
2019-02-18T05:55:19.299Z,15.30
2019-02-18T06:00:21.199Z,16.80
2019-02-18T06:05:23.113Z,15.93
2019-02-18T06:10:26.118Z,15.13
2019-02-18T06:15:28.027Z,14.23
2019-02-18T06:20:30.449Z,14.83
2019-02-18T06:25:32.398Z,14.07
2019-02-18T06:30:34.325Z,14.10
2019-02-18T06:35:36.359Z,15.37
2019-02-18T06:40:38.266Z,16.37
2019-02-18T06:45:49.142Z,16.33
2019-02-18T06:50:51.090Z,16.13
2019-02-18T06:55:53.001Z,14.30
2019-02-18T07:01:09.945Z,14.87
2019-02-18T07:06:27.042Z,15.97
2019-02-18T07:11:33.465Z,15.60
2019-02-18T07:16:35.383Z,16.30
2019-02-18T07:21:37.293Z,14.83
2019-02-18T07:26:39.314Z,15.23
2019-02-18T07:31:41.411Z,15.17
2019-02-18T07:36:43.501Z,15.83
2019-02-18T07:41:45.558Z,16.80
2019-02-18T07:46:47.498Z,17.10
2019-02-18T07:51:49.406Z,17.07
2019-02-18T07:56:51.305Z,15.60
2019-02-18T08:01:53.270Z,15.10
2019-02-18T08:06:55.310Z,14.33
2019-02-18T08:11:57.195Z,14.10
2019-02-18T08:16:59.114Z,15.83
2019-02-18T08:22:01.135Z,15.33
2019-02-18T08:27:03.242Z,14.47
2019-02-18T08:32:06.538Z,15.17
2019-02-18T08:37:08.641Z,15.33
2019-02-18T08:42:10.587Z,15.97
2019-02-18T08:47:12.596Z,16.47
2019-02-18T08:52:14.494Z,15.77
2019-02-18T08:57:16.711Z,16.77
2019-02-18T09:02:18.689Z,17.50
2019-02-18T09:07:21.699Z,16.40
2019-02-18T09:12:23.565Z,16.07
2019-02-18T09:17:25.574Z,15.37
2019-02-18T09:22:56.190Z,16.30
2019-02-18T09:28:00.057Z,16.20
2019-02-18T09:33:01.990Z,15.70
2019-02-18T09:38:11.268Z,15.93
2019-02-18T09:43:13.426Z,17.00
2019-02-18T09:48:15.531Z,16.73
2019-02-18T09:53:17.673Z,16.23
2019-02-18T09:58:34.766Z,16.60
2019-02-18T10:03:36.731Z,16.83
2019-02-18T10:08:38.622Z,15.80
2019-02-18T10:13:40.562Z,15.93
2019-02-18T10:18:42.654Z,15.83
2019-02-18T10:23:44.586Z,17.17
2019-02-18T10:28:46.496Z,16.43
2019-02-18T10:33:48.448Z,16.60
2019-02-18T10:38:50.555Z,15.63
2019-02-18T10:43:54.735Z,16.80
2019-02-18T10:48:56.306Z,17.07
2019-02-18T10:53:58.215Z,17.00
2019-02-18T10:59:02.043Z,17.10
2019-02-18T11:04:03.956Z,17.40
2019-02-18T11:09:07.655Z,17.07
2019-02-18T11:14:09.687Z,17.73
2019-02-18T11:19:11.971Z,18.20
2019-02-18T11:24:13.874Z,17.83
2019-02-18T11:29:15.934Z,17.40
2019-02-18T11:34:17.838Z,18.17
2019-02-18T11:39:19.855Z,16.73
2019-02-18T11:44:21.782Z,16.53
2019-02-18T11:49:24.178Z,17.37
2019-02-18T11:54:27.282Z,17.33
2019-02-18T11:59:29.199Z,16.20
2019-02-18T12:04:31.151Z,18.00
2019-02-18T12:09:33.433Z,17.00
2019-02-18T12:14:35.348Z,16.07
2019-02-18T12:19:37.507Z,16.40
2019-02-18T12:24:39.414Z,16.67
2019-02-18T12:29:41.337Z,16.00
2019-02-18T12:34:43.259Z,16.17
2019-02-18T12:39:45.186Z,17.60
2019-02-18T12:44:47.134Z,16.33
2019-02-18T12:49:50.978Z,15.53
2019-02-18T12:54:52.906Z,15.67
2019-02-18T12:59:55.315Z,15.67
2019-02-18T13:04:57.906Z,15.60
2019-02-18T13:09:59.903Z,14.87
2019-02-18T13:15:03.516Z,14.60
2019-02-18T13:20:07.628Z,14.87
2019-02-18T13:25:10.240Z,15.07
2019-02-18T13:30:13.908Z,14.83
2019-02-18T13:35:15.861Z,15.13
2019-02-18T13:40:17.859Z,13.73
2019-02-18T13:45:20.204Z,16.13
2019-02-18T13:50:22.395Z,14.53
2019-02-18T13:55:24.435Z,16.30
2019-02-18T14:00:26.622Z,14.80
2019-02-18T14:05:28.646Z,16.30
2019-02-18T14:10:30.671Z,14.13
2019-02-18T14:15:32.682Z,13.67
2019-02-18T14:20:34.773Z,14.03
2019-02-18T14:25:36.682Z,13.80
2019-02-18T14:30:38.808Z,15.13
2019-02-18T14:35:41.206Z,29.63
2019-02-18T14:40:43.220Z,38.60
2019-02-18T14:45:46.391Z,28.13
2019-02-18T14:50:56.334Z,54.07
2019-02-18T14:55:52.527Z,79.80
2019-02-18T15:00:54.573Z,60.70
2019-02-18T15:05:58.048Z,22.82
2019-02-18T15:11:00.083Z,11.88
2019-02-18T15:16:02.730Z,12.25
2019-02-18T15:21:04.723Z,12.18
2019-02-18T15:26:06.659Z,12.50
2019-02-18T15:31:08.569Z,10.70
2019-02-18T15:36:10.662Z,11.20
2019-02-18T15:41:12.969Z,11.28
2019-02-18T15:46:15.149Z,10.68
2019-02-18T15:51:17.229Z,10.55
2019-02-18T15:56:19.358Z,10.10
2019-02-18T16:01:21.375Z,11.08
2019-02-18T16:06:23.295Z,12.20
2019-02-18T16:11:25.227Z,11.87
2019-02-18T16:16:27.119Z,12.10
2019-02-18T16:21:29.413Z,11.97
2019-02-18T16:26:31.450Z,11.03
2019-02-18T16:31:33.342Z,11.70
2019-02-18T16:36:35.946Z,11.73
2019-02-18T16:41:39.192Z,10.47
2019-02-18T16:46:41.106Z,10.53
2019-02-18T16:51:43.401Z,10.93
2019-02-18T16:56:46.733Z,10.60
2019-02-18T17:01:48.665Z,11.60
2019-02-18T17:06:51.636Z,11.53
2019-02-18T17:11:53.945Z,26.17
2019-02-18T17:16:55.942Z,17.03
2019-02-18T17:21:58.870Z,10.90
2019-02-18T17:27:00.775Z,17.47
2019-02-18T17:32:02.664Z,13.43
2019-02-18T17:37:04.770Z,11.70
2019-02-18T17:42:06.664Z,12.20
2019-02-18T17:47:09.716Z,11.37
2019-02-18T17:52:12.121Z,12.10
2019-02-18T17:57:14.030Z,12.87
2019-02-18T18:02:16.083Z,12.87
2019-02-18T18:07:18.119Z,11.60
2019-02-18T18:12:20.070Z,11.13
2019-02-18T18:17:22.095Z,11.53
2019-02-18T18:22:24.175Z,10.80
2019-02-18T18:27:26.186Z,10.77
2019-02-18T18:32:28.090Z,11.13
2019-02-18T18:37:30.034Z,11.33
2019-02-18T18:42:32.577Z,11.70
2019-02-18T18:47:34.505Z,12.23
2019-02-18T18:52:36.391Z,11.73
2019-02-18T18:57:38.604Z,12.93
2019-02-18T19:02:40.668Z,12.53
2019-02-18T19:07:42.583Z,13.13
2019-02-18T19:12:44.744Z,13.20
2019-02-18T19:17:46.629Z,14.20
2019-02-18T19:22:48.921Z,15.33
2019-02-18T19:27:50.958Z,14.17
2019-02-18T19:32:53.340Z,15.80
2019-02-18T19:37:55.412Z,16.10
2019-02-18T19:42:58.505Z,15.07
2019-02-18T19:48:00.614Z,15.77
2019-02-18T19:53:03.613Z,15.47
2019-02-18T19:58:05.753Z,16.13
2019-02-18T20:03:07.647Z,16.53
2019-02-18T20:08:09.578Z,40.60
2019-02-18T20:13:11.887Z,15.43
2019-02-18T20:18:15.150Z,15.60
2019-02-18T20:23:17.130Z,15.17
2019-02-18T20:28:28.197Z,13.10
2019-02-18T20:33:30.410Z,13.13
2019-02-18T20:38:32.446Z,14.90
2019-02-18T20:43:35.393Z,18.70
2019-02-18T20:48:37.855Z,16.23
2019-02-18T20:53:40.134Z,14.77
2019-02-18T20:58:42.037Z,14.47
2019-02-18T21:03:43.961Z,14.03
2019-02-18T21:08:45.972Z,13.63
2019-02-18T21:13:47.870Z,13.63
2019-02-18T21:18:49.768Z,13.70
2019-02-18T21:23:51.707Z,13.73
2019-02-18T21:28:53.643Z,12.50
2019-02-18T21:33:55.821Z,12.20
2019-02-18T21:39:00.206Z,13.57
2019-02-18T21:44:02.152Z,13.77
2019-02-18T21:49:04.057Z,13.50
2019-02-18T21:54:07.632Z,11.80
2019-02-18T21:59:09.659Z,11.80
2019-02-18T22:04:11.537Z,11.93
2019-02-18T22:09:14.511Z,13.10
2019-02-18T22:14:16.805Z,14.10
2019-02-18T22:19:19.049Z,13.97
2019-02-18T22:24:21.162Z,13.63
2019-02-18T22:29:23.304Z,13.60
2019-02-18T22:34:25.435Z,13.37
2019-02-18T22:39:28.724Z,12.70
2019-02-18T22:44:30.878Z,12.27
2019-02-18T22:49:32.767Z,11.43
2019-02-18T22:54:34.657Z,12.00
2019-02-18T22:59:36.866Z,11.33
2019-02-18T23:04:38.856Z,11.57
2019-02-18T23:09:40.888Z,11.73
2019-02-18T23:14:50.306Z,11.33
2019-02-18T23:19:47.032Z,11.50
2019-02-18T23:24:48.916Z,10.33
2019-02-18T23:29:50.909Z,11.13
2019-02-18T23:34:52.805Z,12.03
2019-02-18T23:39:54.734Z,13.47
2019-02-18T23:44:59.340Z,12.30
2019-02-18T23:50:00.537Z,13.93
2019-02-18T23:55:03.465Z,12.53
